Time;durP1;ratioP1;P1;durP2;ratioP2;P2;SDS_P1;SDS_P2;PMS_P1;PMS_P2;Temp;Humidity;BMP_temperature;BMP_pressure;BME280_temperature;BME280_humidity;BME280_pressure;Samples;Min_cycle;Max_cycle;Signal;HPM_P1;HPM_P2
2021/04/17 00:01:57;;;;;;;4.97;4.67;;;;;;;6.66;79.67;100168.91;1608307;89;21399;-83
2021/04/17 00:04:28;;;;;;;6.80;5.83;;;;;;;6.67;79.71;100173.23;1656187;86;21184;-82
2021/04/17 00:06:56;;;;;;;7.40;6.77;;;;;;;6.68;79.71;100176.19;1656278;86;21145;-83
2021/04/17 00:09:28;;;;;;;5.67;5.27;;;;;;;6.72;79.21;100173.53;1628794;88;21395;-83
2021/04/17 00:12:00;;;;;;;7.07;6.53;;;;;;;6.77;78.24;100173.05;1633157;86;21069;-83
2021/04/17 00:14:34;;;;;;;7.07;6.47;;;;;;;6.72;78.35;100174.86;1616007;87;21195;-82
2021/04/17 00:17:06;;;;;;;;;;;;;;;6.67;78.61;100174.55;1613656;87;21348;-82
2021/04/17 00:19:35;;;;;;;8.70;8.03;;;;;;;6.62;78.42;100176.86;1616530;87;20233;-82
2021/04/17 00:22:04;;;;;;;7.60;6.90;;;;;;;6.50;78.59;100182.15;1616327;87;21188;-82
2021/04/17 00:24:31;;;;;;;5.20;4.90;;;;;;;6.55;78.23;100179.34;1615756;87;21199;-82
2021/04/17 00:26:59;;;;;;;6.57;5.97;;;;;;;6.55;77.91;100182.48;1616516;87;21199;-83
2021/04/17 00:30:37;;;;;;;6.33;5.73;;;;;;;6.47;78.10;100180.67;1816071;77;23015;-84
2021/04/17 00:33:05;;;;;;;4.43;4.13;;;;;;;6.32;78.59;100180.50;1751319;79;21313;-83
2021/04/17 00:35:34;;;;;;;5.60;5.20;;;;;;;6.28;78.59;100181.82;1711491;83;21199;-83
2021/04/17 00:38:00;;;;;;;6.23;5.83;;;;;;;6.30;78.52;100185.13;1717130;82;21178;-82
2021/04/17 00:40:28;;;;;;;7.00;6.50;;;;;;;6.27;78.66;100181.98;1722324;82;21179;-84
2021/04/17 00:42:56;;;;;;;8.20;7.50;;;;;;;6.17;78.92;100188.76;1724678;82;21144;-87
2021/04/17 00:45:25;;;;;;;5.77;5.37;;;;;;;6.18;78.91;100186.45;1694668;82;21145;-83
2021/04/17 00:47:53;;;;;;;6.83;6.23;;;;;;;6.24;78.53;100185.29;1711341;82;21193;-83
2021/04/17 00:50:20;;;;;;;8.97;8.17;;;;;;;6.20;78.76;100183.97;1688466;83;21308;-84
2021/04/17 00:52:47;;;;;;;7.23;6.73;;;;;;;6.13;79.14;100193.55;1687200;83;21170;-84
2021/04/17 00:55:15;;;;;;;6.80;6.30;;;;;;;6.13;79.15;100190.08;1687241;83;22549;-84
2021/04/17 00:57:42;;;;;;;6.57;6.07;;;;;;;6.15;79.00;100186.27;1720315;82;21310;-83
2021/04/17 01:00:11;;;;;;;8.60;7.80;;;;;;;6.09;79.21;100192.22;1732982;82;21173;-83
2021/04/17 01:02:46;;;;;;;9.83;8.87;;;;;;;5.99;79.73;100188.41;1736173;82;21637;-83
2021/04/17 01:05:16;;;;;;;8.10;7.03;;;;;;;5.95;79.85;100188.84;1733608;82;21738;-83
2021/04/17 01:07:51;;;;;;;9.63;8.07;;;;;;;6.08;79.59;100196.34;1719249;81;21134;-84
2021/04/17 01:10:34;;;;;;;7.63;6.93;;;;;;;6.10;79.21;100190.39;1681055;84;21335;-83
2021/04/17 01:13:02;;;;;;;9.17;8.30;;;;;;;6.07;79.46;100194.70;1716481;83;21502;-84
2021/04/17 01:15:30;;;;;;;10.60;9.70;;;;;;;6.07;79.27;100198.67;1693586;84;22241;-84
2021/04/17 01:17:59;;;;;;;8.60;7.90;;;;;;;6.10;79.22;100198.33;1703115;84;21191;-83
2021/04/17 01:20:54;;;;;;;8.87;7.93;;;;;;;6.20;78.87;100197.70;1701206;83;21891;-83
2021/04/17 01:23:37;;;;;;;8.90;8.17;;;;;;;6.06;78.79;100170.55;1699634;82;21362;-82
2021/04/17 01:26:09;;;;;;;6.77;6.17;;;;;;;6.22;79.08;100207.63;1723062;81;21670;-83
2021/04/17 01:28:40;;;;;;;6.13;5.67;;;;;;;6.20;78.75;100203.81;1707957;81;21185;-82
2021/04/17 01:31:12;;;;;;;6.57;5.97;;;;;;;6.19;78.61;100204.80;1633189;86;21651;-82
2021/04/17 01:33:47;;;;;;;6.83;6.23;;;;;;;6.24;78.62;100195.06;1654455;83;21130;-82
2021/04/17 01:36:16;;;;;;;6.43;5.97;;;;;;;6.20;78.70;100203.00;1692083;83;21154;-83
2021/04/17 01:39:11;;;;;;;7.17;6.63;;;;;;;6.10;78.76;100199.66;1667965;85;21185;-83
2021/04/17 01:41:48;;;;;;;8.07;7.27;;;;;;;6.00;79.07;100204.59;1650314;85;21214;-83
2021/04/17 01:44:23;;;;;;;7.70;6.90;;;;;;;6.02;78.87;100203.11;1658625;85;21201;-83
2021/04/17 01:47:04;;;;;;;7.27;6.77;;;;;;;6.09;78.72;100211.25;1677308;84;21491;-82
2021/04/17 01:49:38;;;;;;;8.13;7.43;;;;;;;6.03;78.77;100207.43;1658722;84;21654;-83
2021/04/17 01:52:10;;;;;;;7.73;7.03;;;;;;;5.94;79.05;100207.86;1644776;84;21763;-83
2021/04/17 01:54:45;;;;;;;7.83;7.13;;;;;;;5.14;79.05;100081.37;1695808;84;21184;-82
2021/04/17 01:57:28;;;;;;;6.90;6.30;;;;;;;6.13;78.72;100209.92;1750337;79;22213;-84
2021/04/17 01:59:56;;;;;;;7.83;7.23;;;;;;;6.09;78.75;100223.16;1691756;83;21336;-82
2021/04/17 02:02:23;;;;;;;8.00;7.40;;;;;;;6.03;78.79;100212.72;1645379;84;21120;-83
2021/04/17 02:04:50;;;;;;;7.97;7.33;;;;;;;6.00;78.88;100208.56;1626616;88;21214;-82
2021/04/17 02:07:17;;;;;;;7.80;6.10;;;;;;;6.06;78.86;100216.85;1619656;88;21224;-83
2021/04/17 02:09:45;;;;;;;7.53;7.00;;;;;;;6.14;78.53;100215.06;1611142;88;21253;-81
2021/04/17 02:12:12;;;;;;;8.43;7.73;;;;;;;6.13;78.62;100212.57;1603619;86;21553;-82
2021/04/17 02:14:39;;;;;;;9.13;8.37;;;;;;;6.07;78.87;100217.20;1628574;86;21354;-82
2021/04/17 02:17:25;;;;;;;7.60;6.97;;;;;;;6.01;79.04;100222.14;1622376;86;21237;-82
2021/04/17 02:20:12;;;;;;;9.37;8.57;;;;;;;6.08;79.07;100222.81;1620884;87;21343;-83
2021/04/17 02:22:41;;;;;;;9.13;8.33;;;;;;;6.22;78.85;100223.51;1622499;86;21891;-83
2021/04/17 02:25:12;;;;;;;10.47;9.50;;;;;;;6.26;78.74;100232.78;1605827;87;21665;-83
2021/04/17 02:27:40;;;;;;;11.60;10.40;;;;;;;6.21;78.86;100237.22;1612765;87;21227;-84
2021/04/17 02:30:09;;;;;;;10.43;9.37;;;;;;;6.16;78.80;100232.08;1609259;87;21237;-83
2021/04/17 02:32:36;;;;;;;8.87;8.07;;;;;;;6.16;78.73;100233.40;1604007;87;21176;-83
2021/04/17 02:35:05;;;;;;;9.97;9.07;;;;;;;6.18;78.73;100239.39;1604494;86;21623;-83
2021/04/17 02:37:32;;;;;;;9.63;8.83;;;;;;;5.81;78.98;100215.43;1608083;88;21200;-84
2021/04/17 02:39:58;;;;;;;10.00;8.73;;;;;;;5.86;79.57;100243.56;1615146;87;21225;-84
2021/04/17 02:42:25;;;;;;;13.63;9.73;;;;;;;5.78;79.59;100249.65;1596343;88;21249;-84
2021/04/17 02:44:54;;;;;;;;;;;;;;;5.83;79.87;100251.80;1596077;85;21253;-84
2021/04/17 02:47:22;;;;;;;10.93;10.00;;;;;;;5.84;80.02;100253.48;1610155;88;20177;-82
2021/04/17 02:49:50;;;;;;;11.27;10.10;;;;;;;5.78;80.41;100259.38;1610221;88;21342;-82
2021/04/17 02:52:16;;;;;;;8.07;7.33;;;;;;;5.78;80.51;100257.59;1610528;88;21215;-82
2021/04/17 02:54:45;;;;;;;8.90;8.10;;;;;;;5.86;80.30;100260.75;1605148;88;21185;-82
2021/04/17 02:57:12;;;;;;;9.47;8.53;;;;;;;5.98;79.91;100260.81;1565269;88;21216;-81
2021/04/17 02:59:40;;;;;;;8.93;8.07;;;;;;;6.03;79.83;100257.20;1574647;89;21719;-81
2021/04/17 03:02:07;;;;;;;8.23;7.13;;;;;;;6.01;79.84;100266.30;1589866;87;21129;-82
2021/04/17 03:04:34;;;;;;;9.97;8.63;;;;;;;5.96;79.68;100273.38;1606975;88;21234;-82
2021/04/17 03:07:00;;;;;;;;;;;;;;;5.91;79.57;100272.16;1612879;88;21208;-82
2021/04/17 03:09:27;;;;;;;7.97;7.28;;;;;;;5.82;79.45;100272.62;1607864;88;20211;-81
2021/04/17 03:11:56;;;;;;;8.10;7.27;;;;;;;5.74;79.49;100272.59;1604346;87;21105;-81
2021/04/17 03:14:23;;;;;;;9.70;8.13;;;;;;;5.77;79.65;100280.22;1609852;88;21200;-81
2021/04/17 03:16:52;;;;;;;9.60;8.20;;;;;;;5.79;79.74;100280.89;1598441;88;21142;-81
2021/04/17 03:19:19;;;;;;;10.27;9.13;;;;;;;5.76;79.97;100287.80;1595866;88;21191;-82
2021/04/17 03:21:47;;;;;;;10.37;9.23;;;;;;;5.68;80.05;100285.95;1597505;88;21208;-82
2021/04/17 03:24:14;;;;;;;10.50;9.50;;;;;;;5.69;79.89;100296.03;1597015;88;21145;-82
2021/04/17 03:26:41;;;;;;;10.60;9.50;;;;;;;5.76;79.75;100290.45;1602739;88;21486;-82
2021/04/17 03:29:08;;;;;;;11.47;10.27;;;;;;;5.79;79.85;100289.64;1598902;88;21203;-83
2021/04/17 03:31:36;;;;;;;12.47;11.20;;;;;;;5.77;80.09;100296.09;1605722;88;21173;-86
2021/04/17 03:34:03;;;;;;;8.87;7.97;;;;;;;5.75;80.09;100294.92;1594825;87;21134;-89
2021/04/17 03:36:30;;;;;;;9.70;8.67;;;;;;;5.77;80.09;100302.70;1597379;88;21235;-87
2021/04/17 03:38:58;;;;;;;10.07;8.23;;;;;;;5.82;79.88;100292.45;1593358;88;21762;-87
2021/04/17 03:41:25;;;;;;;9.13;8.23;;;;;;;5.18;79.88;100205.57;1593393;88;21791;-88
2021/04/17 03:43:53;;;;;;;9.90;8.70;;;;;;;5.63;80.38;100305.42;1580532;88;21357;-89
2021/04/17 03:46:20;;;;;;;9.03;8.13;;;;;;;5.56;80.64;100313.16;1645157;85;21082;-86
2021/04/17 03:48:48;;;;;;;9.83;8.83;;;;;;;5.59;80.67;100315.98;1642131;85;21181;-88
2021/04/17 03:51:16;;;;;;;9.23;7.83;;;;;;;5.72;80.41;100319.03;1637388;85;21699;-89
2021/04/17 03:53:43;;;;;;;10.00;9.00;;;;;;;5.75;80.19;100315.26;1646150;85;21221;-88
2021/04/17 03:56:10;;;;;;;9.17;8.23;;;;;;;5.74;80.33;100318.37;1648633;85;21122;-89
2021/04/17 03:58:40;;;;;;;9.67;8.77;;;;;;;5.76;80.48;100327.48;1657402;85;21738;-87
2021/04/17 04:01:08;;;;;;;9.53;8.37;;;;;;;5.82;80.22;100327.69;1640354;85;21085;-81
2021/04/17 04:03:35;;;;;;;8.97;8.10;;;;;;;5.95;79.80;100335.23;1634966;86;21193;-81
2021/04/17 04:06:02;;;;;;;9.70;7.87;;;;;;;6.00;79.55;100334.74;1656692;85;21188;-81
2021/04/17 04:08:30;;;;;;;9.33;7.57;;;;;;;5.91;79.33;100338.30;1657390;85;21201;-81
2021/04/17 04:10:58;;;;;;;8.67;7.87;;;;;;;5.82;79.64;100337.42;1651795;85;21297;-82
2021/04/17 04:13:25;;;;;;;8.97;8.07;;;;;;;5.89;79.61;100338.45;1646259;85;21181;-81
2021/04/17 04:15:54;;;;;;;8.83;7.40;;;;;;;5.97;79.62;100337.70;1644609;85;21228;-82
2021/04/17 04:18:22;;;;;;;9.77;8.33;;;;;;;5.94;79.80;100347.27;1657964;85;21189;-81
2021/04/17 04:20:50;;;;;;;7.93;7.13;;;;;;;5.88;79.83;100359.30;1646316;85;21201;-81
2021/04/17 04:23:16;;;;;;;7.70;7.00;;;;;;;5.91;79.77;100357.64;1656127;85;21085;-81
2021/04/17 04:25:44;;;;;;;8.50;7.70;;;;;;;5.95;79.34;100347.58;1650465;85;21177;-82
2021/04/17 04:28:11;;;;;;;7.27;6.43;;;;;;;6.02;79.39;100348.64;1657884;86;21222;-82
2021/04/17 04:30:38;;;;;;;10.73;8.10;;;;;;;5.39;79.56;100254.58;1658119;85;21229;-82
2021/04/17 04:33:06;;;;;;;8.47;7.33;;;;;;;5.95;79.61;100352.87;1649676;85;21270;-82
2021/04/17 04:35:33;;;;;;;7.93;7.20;;;;;;;5.99;79.62;100352.45;1646973;85;21219;-81
2021/04/17 04:38:00;;;;;;;8.80;8.00;;;;;;;6.12;79.33;100348.52;1654262;85;21320;-82
2021/04/17 04:40:27;;;;;;;7.23;6.53;;;;;;;6.13;79.25;100354.98;1643953;86;21657;-82
2021/04/17 04:42:54;;;;;;;8.17;7.37;;;;;;;6.09;79.47;100356.80;1638793;85;21187;-83
2021/04/17 04:45:21;;;;;;;6.60;5.97;;;;;;;5.96;79.59;100362.01;1652414;84;21117;-81
2021/04/17 04:47:48;;;;;;;7.93;6.57;;;;;;;5.92;79.83;100361.97;1652479;85;21687;-82
2021/04/17 04:50:15;;;;;;;8.97;7.27;;;;;;;5.94;79.96;100372.39;1651533;85;21619;-83
2021/04/17 04:52:42;;;;;;;8.47;7.57;;;;;;;5.93;80.17;100374.19;1640645;85;21190;-83
2021/04/17 04:55:11;;;;;;;7.50;6.80;;;;;;;5.90;80.53;100379.81;1652511;85;21864;-80
2021/04/17 04:57:38;;;;;;;7.67;6.83;;;;;;;5.91;80.68;100373.52;1644175;85;21173;-78
2021/04/17 05:00:06;;;;;;;7.60;7.00;;;;;;;6.00;80.59;100374.44;1639766;85;21359;-80
2021/04/17 05:02:33;;;;;;;5.87;5.30;;;;;;;6.08;80.20;100375.79;1644023;85;21193;-80
2021/04/17 05:05:01;;;;;;;7.17;6.50;;;;;;;6.03;80.19;100386.86;1643858;85;21177;-82
2021/04/17 05:07:28;;;;;;;4.73;4.43;;;;;;;5.94;80.43;100386.95;1648491;85;21250;-81
2021/04/17 05:09:58;;;;;;;5.57;5.10;;;;;;;5.94;80.54;100386.44;1648634;85;21177;-80
2021/04/17 05:12:25;;;;;;;4.77;4.37;;;;;;;6.04;80.24;100388.50;1635395;85;21468;-80
2021/04/17 05:14:52;;;;;;;5.10;4.70;;;;;;;6.09;80.26;100391.19;1598314;88;21176;-81
2021/04/17 05:17:19;;;;;;;6.70;6.10;;;;;;;6.05;80.42;100393.32;1591462;88;21339;-80
2021/04/17 05:19:47;;;;;;;5.93;5.43;;;;;;;6.03;80.63;100394.80;1594834;88;21331;-80
2021/04/17 05:22:14;;;;;;;5.60;5.10;;;;;;;6.10;80.61;100399.45;1594141;86;21194;-80
2021/04/17 05:24:42;;;;;;;6.47;5.63;;;;;;;6.21;80.12;100392.05;1603500;87;21188;-80
2021/04/17 05:27:09;;;;;;;5.50;5.07;;;;;;;6.21;79.97;100389.91;1602959;88;21169;-80
2021/04/17 05:29:36;;;;;;;6.37;5.77;;;;;;;6.17;80.46;100394.69;1598290;88;21184;-81
2021/04/17 05:32:05;;;;;;;4.90;4.43;;;;;;;6.12;80.46;100399.65;1580335;88;21197;-81
2021/04/17 05:34:32;;;;;;;4.67;4.27;;;;;;;6.18;80.43;100406.95;1594858;86;21290;-81
2021/04/17 05:36:59;;;;;;;4.83;4.53;;;;;;;6.28;80.01;100401.53;1601679;88;21176;-80
2021/04/17 05:39:27;;;;;;;6.97;6.00;;;;;;;6.32;79.89;100408.16;1593311;88;21198;-80
2021/04/17 05:41:54;;;;;;;7.87;5.43;;;;;;;6.30;79.99;100403.52;1586662;88;21180;-81
2021/04/17 05:44:21;;;;;;;7.93;6.60;;;;;;;6.27;80.06;100404.33;1593760;87;21176;-80
2021/04/17 05:46:58;;;;;;;7.73;7.10;;;;;;;6.26;80.00;100407.48;1604783;88;21291;-80
2021/04/17 05:49:25;;;;;;;6.80;6.17;;;;;;;6.37;79.98;100410.35;1602804;88;21347;-85
2021/04/17 05:51:52;;;;;;;8.30;7.50;;;;;;;6.43;80.15;100407.05;1595952;88;21205;-88
2021/04/17 05:54:19;;;;;;;7.43;6.77;;;;;;;6.39;80.09;100409.69;1604128;88;21218;-83
2021/04/17 05:56:46;;;;;;;6.90;5.80;;;;;;;6.36;80.44;100410.82;1616482;86;21087;-83
2021/04/17 05:59:14;;;;;;;6.33;5.73;;;;;;;6.34;79.92;100410.16;1648655;85;21186;-85
2021/04/17 06:01:43;;;;;;;5.00;4.60;;;;;;;6.41;79.74;100411.69;1630989;85;21113;-85
2021/04/17 06:04:13;;;;;;;5.67;5.17;;;;;;;6.46;79.96;100416.48;1642690;85;21330;-84
2021/04/17 06:06:42;;;;;;;5.33;4.83;;;;;;;6.42;79.80;100422.12;1639099;85;21185;-84
2021/04/17 06:09:09;;;;;;;5.60;5.13;;;;;;;6.40;80.08;100418.80;1641587;85;22311;-84
2021/04/17 06:11:36;;;;;;;4.53;4.23;;;;;;;6.48;80.02;100411.86;1637049;84;21675;-84
2021/04/17 06:14:03;;;;;;;5.37;4.87;;;;;;;6.65;79.94;100421.55;1631168;85;21727;-84
2021/04/17 06:16:30;;;;;;;5.47;4.77;;;;;;;6.76;79.35;100430.52;1644662;85;21347;-85
2021/04/17 06:19:28;;;;;;;5.03;4.60;;;;;;;6.78;79.25;100423.23;1805943;78;23552;-84
2021/04/17 06:21:55;;;;;;;5.07;4.57;;;;;;;6.74;79.48;100428.53;1742906;80;21159;-84
2021/04/17 06:24:22;;;;;;;4.57;4.17;;;;;;;6.80;79.21;100426.55;1706305;82;21756;-84
2021/04/17 06:26:50;;;;;;;6.03;4.03;;;;;;;6.94;78.70;100430.89;1711474;81;21249;-83
2021/04/17 06:29:17;;;;;;;4.23;3.93;;;;;;;6.99;78.60;100437.36;1715858;82;21332;-84
2021/04/17 06:31:46;;;;;;;4.70;4.30;;;;;;;6.94;78.38;100439.66;1720221;81;21229;-83
2021/04/17 06:34:13;;;;;;;4.53;4.13;;;;;;;6.88;78.10;100442.96;1705083;82;21140;-84
2021/04/17 06:36:40;;;;;;;3.97;3.67;;;;;;;6.90;78.23;100441.48;1685550;83;21391;-84
2021/04/17 06:39:07;;;;;;;;;;;;;;;7.00;78.26;100440.33;1686369;84;21208;-85
2021/04/17 06:41:36;;;;;;;7.70;6.80;;;;;;;7.03;78.30;100448.47;1697349;84;20215;-84
2021/04/17 06:44:08;;;;;;;7.80;6.63;;;;;;;6.93;78.44;100449.09;1691973;83;21252;-85
2021/04/17 06:46:39;;;;;;;10.63;8.00;;;;;;;6.91;78.63;100449.27;1724804;82;21219;-84
2021/04/17 06:49:08;;;;;;;8.80;7.90;;;;;;;7.02;78.69;100450.27;1701842;82;21210;-84
2021/04/17 06:51:39;;;;;;;10.80;9.70;;;;;;;7.19;78.31;100447.15;1709809;82;21813;-86
2021/04/17 06:54:06;;;;;;;13.87;10.97;;;;;;;7.28;77.48;100445.34;1703036;83;21396;-85
2021/04/17 06:56:33;;;;;;;14.43;10.40;;;;;;;7.27;77.65;100449.48;1665436;83;21618;-84
2021/04/17 06:59:01;;;;;;;13.60;10.13;;;;;;;7.29;77.75;100454.98;1683639;83;21702;-84
2021/04/17 07:01:30;;;;;;;11.83;9.50;;;;;;;7.33;77.66;100456.80;1647945;85;21156;-85
2021/04/17 07:03:58;;;;;;;9.63;8.13;;;;;;;7.46;77.43;100452.31;1655102;85;21652;-85
2021/04/17 07:06:27;;;;;;;7.03;6.33;;;;;;;7.54;77.39;100461.11;1653868;84;21225;-85
2021/04/17 07:08:54;;;;;;;7.73;6.93;;;;;;;7.52;76.47;100457.80;1644390;85;21202;-85
2021/04/17 07:11:22;;;;;;;8.43;6.60;;;;;;;7.43;75.91;100463.27;1653824;82;21233;-84
2021/04/17 07:14:13;;;;;;;5.73;5.13;;;;;;;7.35;76.30;100474.70;1669220;84;21292;-85
2021/04/17 07:17:02;;;;;;;5.90;4.93;;;;;;;7.38;76.56;100475.68;1651064;85;21405;-83
2021/04/17 07:19:55;;;;;;;6.50;5.90;;;;;;;7.43;75.97;100475.20;1662213;84;21318;-85
2021/04/17 07:22:27;;;;;;;5.90;5.37;;;;;;;7.38;76.32;100480.52;1639390;85;21212;-84
2021/04/17 07:25:12;;;;;;;6.93;6.23;;;;;;;7.31;76.49;100489.25;1589501;88;21362;-85
2021/04/17 07:27:47;;;;;;;5.93;5.20;;;;;;;7.23;76.80;100486.60;1639082;86;21379;-87
2021/04/17 07:30:23;;;;;;;6.93;6.37;;;;;;;7.29;76.73;100488.59;1592444;88;21327;-86
2021/04/17 07:33:06;;;;;;;7.37;5.30;;;;;;;7.41;76.40;100486.80;1639085;86;21249;-88
2021/04/17 07:35:44;;;;;;;7.27;6.30;;;;;;;7.46;76.03;100483.67;1637200;86;21867;-88
2021/04/17 07:38:26;;;;;;;8.97;8.07;;;;;;;7.42;76.25;100486.29;1625071;86;21247;-90
2021/04/17 07:41:05;;;;;;;9.10;7.37;;;;;;;7.43;76.38;100491.12;1626536;86;21223;-89
2021/04/17 07:44:02;;;;;;;12.37;10.23;;;;;;;7.55;76.52;100496.42;1640996;86;21193;-90
2021/04/17 07:46:43;;;;;;;16.70;10.83;;;;;;;7.72;76.20;100493.28;1644827;85;21728;-91
2021/04/17 07:49:19;;;;;;;15.93;11.07;;;;;;;7.81;75.86;100497.59;1593567;88;21705;-88
2021/04/17 07:52:05;;;;;;;18.05;13.38;;;;;;;7.76;75.70;100495.45;1640254;86;21842;-89
2021/04/17 07:54:33;;;;;;;14.33;12.70;;;;;;;7.75;75.90;100504.90;1643084;85;21364;-88
2021/04/17 07:57:08;;;;;;;14.13;9.90;;;;;;;7.72;75.64;100497.26;1644162;85;21162;-91
2021/04/17 07:59:42;;;;;;;13.85;9.08;;;;;;;7.76;75.63;100506.06;1640673;86;21383;-88
2021/04/17 08:02:12;;;;;;;10.77;8.00;;;;;;;7.84;75.12;100501.76;1625006;85;21222;-90
2021/04/17 08:04:41;;;;;;;12.77;9.47;;;;;;;7.84;75.37;100505.73;1601793;87;21864;-87
2021/04/17 08:07:08;;;;;;;15.33;10.20;;;;;;;7.80;75.60;100510.04;1601724;88;21859;-89
2021/04/17 08:09:37;;;;;;;11.60;10.00;;;;;;;7.82;75.55;100503.72;1636161;86;22105;-89
2021/04/17 08:12:10;;;;;;;12.40;9.77;;;;;;;7.79;75.14;100504.89;1645452;85;21597;-89
2021/04/17 08:14:38;;;;;;;9.60;7.23;;;;;;;7.79;75.13;100511.02;1654178;85;21625;-89
2021/04/17 08:17:05;;;;;;;8.43;6.43;;;;;;;7.89;74.99;100506.90;1641115;85;21251;-89
2021/04/17 08:19:37;;;;;;;8.07;7.27;;;;;;;7.92;74.76;100505.72;1629131;86;21174;-89
2021/04/17 08:22:05;;;;;;;7.70;6.90;;;;;;;7.89;75.02;100506.90;1652943;85;21236;-88
2021/04/17 08:24:33;;;;;;;8.70;6.80;;;;;;;7.89;75.16;100508.22;1637860;85;21233;-89
2021/04/17 08:27:02;;;;;;;7.63;6.33;;;;;;;7.87;75.28;100506.20;1637405;84;21202;-88
2021/04/17 08:29:55;;;;;;;6.67;5.97;;;;;;;7.96;75.31;100506.53;1646887;85;21249;-88
2021/04/17 08:32:32;;;;;;;8.27;6.90;;;;;;;8.10;74.99;100509.50;1668510;84;21338;-88
2021/04/17 08:35:06;;;;;;;8.27;7.40;;;;;;;8.16;74.82;100511.00;1680370;84;21304;-89
2021/04/17 08:37:56;;;;;;;9.60;8.23;;;;;;;8.13;74.75;100507.86;1688964;83;21160;-88
2021/04/17 08:40:41;;;;;;;13.53;11.83;;;;;;;8.10;75.03;100513.02;1650878;84;21943;-85
2021/04/17 08:43:35;;;;;;;14.70;13.10;;;;;;;8.10;74.78;100512.16;1777227;79;22987;-88
2021/04/17 08:46:12;;;;;;;17.07;15.30;;;;;;;8.09;74.75;100515.83;1712051;79;21251;-90
2021/04/17 08:48:57;;;;;;;17.90;13.08;;;;;;;8.16;74.43;100512.84;1695360;83;21215;-89
2021/04/17 08:51:32;;;;;;;13.97;12.33;;;;;;;8.16;74.20;100517.64;1695067;83;21226;-87
2021/04/17 08:57:18;;;;;;;23.07;15.67;;;;;;;8.10;74.32;100517.47;1627840;84;21855;-83
2021/04/17 08:59:58;;;;;;;24.00;15.57;;;;;;;8.03;74.35;100519.16;1601817;86;21235;-88
2021/04/17 09:02:28;;;;;;;20.47;14.50;;;;;;;8.01;74.55;100521.16;1639985;84;21198;-88
2021/04/17 09:05:09;;;;;;;25.23;14.97;;;;;;;8.08;74.53;100520.80;1651832;86;21348;-89
2021/04/17 09:07:44;;;;;;;21.50;15.00;;;;;;;8.07;74.71;100522.63;1647070;86;21197;-90
2021/04/17 09:10:35;;;;;;;24.73;16.83;;;;;;;7.98;74.87;100524.45;1636747;86;21338;-90
2021/04/17 09:13:20;;;;;;;22.07;16.57;;;;;;;7.91;74.92;100522.63;1587257;85;21171;-90
2021/04/17 09:15:56;;;;;;;21.00;12.87;;;;;;;7.81;75.24;100524.13;1573761;89;21229;-91
2021/04/17 09:18:39;;;;;;;17.98;13.43;;;;;;;7.81;75.29;100524.13;1572207;89;21978;-90
2021/04/17 09:21:22;;;;;;;15.57;12.03;;;;;;;7.86;75.20;100524.47;1599165;88;21292;-88
2021/04/17 09:23:53;;;;;;;17.23;12.90;;;;;;;7.83;75.36;100520.81;1620121;87;21134;-83
2021/04/17 09:26:34;;;;;;;19.50;14.07;;;;;;;7.75;75.41;100516.33;1631498;86;21190;-85
2021/04/17 09:29:10;;;;;;;19.20;15.20;;;;;;;7.69;75.80;100523.64;1632885;85;21227;-89
2021/04/17 09:31:39;;;;;;;15.63;13.80;;;;;;;7.72;75.88;100520.66;1684073;83;21286;-84
2021/04/17 09:34:13;;;;;;;18.47;15.40;;;;;;;7.78;75.61;100520.50;1711263;81;21110;-88
2021/04/17 09:36:42;;;;;;;15.47;12.23;;;;;;;7.72;75.90;100521.14;1694168;83;21412;-92
2021/04/17 09:39:31;;;;;;;15.57;11.83;;;;;;;7.64;76.36;100523.29;1694202;83;21182;-88
2021/04/17 09:42:04;;;;;;;14.90;12.67;;;;;;;7.63;76.54;100525.63;1673021;83;21767;-87
2021/04/17 09:44:44;;;;;;;16.07;11.77;;;;;;;7.74;76.41;100525.78;1699282;83;21561;-91
2021/04/17 09:47:15;;;;;;;15.83;11.23;;;;;;;7.87;76.13;100530.59;1695800;80;21185;-88
2021/04/17 09:49:46;;;;;;;13.27;10.83;;;;;;;7.86;76.29;100532.44;1687648;83;21218;-87
2021/04/17 09:52:22;;;;;;;14.23;12.13;;;;;;;7.76;76.42;100529.09;1665371;85;21180;-87
2021/04/17 09:55:03;;;;;;;15.73;10.83;;;;;;;7.71;76.79;100527.45;1693875;83;21260;-88
2021/04/17 09:57:31;;;;;;;10.50;8.17;;;;;;;7.75;77.18;100532.76;1697152;82;21178;-89
2021/04/17 10:00:01;;;;;;;11.27;9.20;;;;;;;7.79;77.09;100530.92;1693453;83;21216;-95
2021/04/17 10:02:48;;;;;;;9.37;8.33;;;;;;;7.76;76.96;100538.37;1694399;83;21197;-95
2021/04/17 10:05:37;;;;;;;11.97;8.43;;;;;;;7.71;77.08;100538.07;1684402;83;21159;-95
2021/04/17 10:08:09;;;;;;;14.43;9.53;;;;;;;7.64;77.31;100547.67;1703234;83;21150;-95
2021/04/17 10:10:40;;;;;;;11.97;8.57;;;;;;;7.70;77.40;100553.64;1645685;85;21641;-93
2021/04/17 10:13:12;;;;;;;11.93;9.43;;;;;;;7.80;77.22;100551.17;1692248;83;21118;-87
2021/04/17 10:16:06;;;;;;;15.20;10.13;;;;;;;7.84;77.38;100542.39;1823071;75;22455;-92
2021/04/17 10:18:35;;;;;;;14.47;10.27;;;;;;;7.78;77.64;100544.38;1780234;78;21214;-90
2021/04/17 10:21:06;;;;;;;11.20;8.27;;;;;;;7.80;77.82;100550.34;1783440;77;21213;-89
2021/04/17 10:23:34;;;;;;;11.23;8.47;;;;;;;7.90;78.02;100552.84;1783343;77;21075;-90
2021/04/17 10:26:09;;;;;;;10.57;8.40;;;;;;;8.03;77.56;100556.33;1779644;79;21622;-88
2021/04/17 10:28:38;;;;;;;10.00;8.97;;;;;;;8.06;77.47;100552.84;1791870;79;21755;-90
2021/04/17 10:31:18;;;;;;;11.63;9.30;;;;;;;8.05;77.67;100553.83;1768504;79;21233;-90
2021/04/17 10:33:48;;;;;;;11.77;8.83;;;;;;;8.04;77.47;100552.66;1751652;79;21092;-89
2021/04/17 10:36:22;;;;;;;9.00;7.70;;;;;;;8.03;77.40;100551.02;1738116;81;21670;-88
2021/04/17 10:38:50;;;;;;;9.50;8.43;;;;;;;8.11;77.28;100553.66;1713610;82;21156;-87
2021/04/17 10:41:29;;;;;;;10.03;8.07;;;;;;;8.25;76.93;100551.67;1682360;84;21658;-87
2021/04/17 10:44:14;;;;;;;10.10;8.20;;;;;;;8.32;76.76;100557.94;1742528;80;21188;-88
2021/04/17 10:46:45;;;;;;;12.23;9.27;;;;;;;8.23;76.06;100556.80;1755171;80;21288;-87
2021/04/17 10:49:36;;;;;;;11.30;10.03;;;;;;;8.09;76.37;100556.98;1742077;80;21236;-85
2021/04/17 10:52:26;;;;;;;9.60;8.00;;;;;;;8.06;76.74;100559.95;1748133;80;21196;-83
2021/04/17 10:54:56;;;;;;;10.10;9.10;;;;;;;8.15;76.77;100570.41;1736784;80;21492;-86
2021/04/17 10:57:24;;;;;;;9.93;8.93;;;;;;;8.21;76.89;100562.77;1746758;79;21502;-84
2021/04/17 11:00:05;;;;;;;14.53;10.83;;;;;;;8.25;77.08;100569.41;1736593;80;21622;-84
2021/04/17 11:02:35;;;;;;;11.30;10.20;;;;;;;8.30;77.05;100568.41;1741384;80;21205;-86
2021/04/17 11:05:07;;;;;;;10.37;9.27;;;;;;;8.33;76.63;100570.75;1692424;82;21329;-87
2021/04/17 11:07:37;;;;;;;9.80;8.53;;;;;;;8.43;76.33;100574.06;1683844;83;22209;-87
2021/04/17 11:10:09;;;;;;;10.73;9.43;;;;;;;8.57;75.77;100573.90;1740977;80;21625;-87
2021/04/17 11:12:39;;;;;;;10.00;8.90;;;;;;;8.63;76.00;100572.39;1743838;80;21102;-87
2021/04/17 11:15:26;;;;;;;11.43;10.23;;;;;;;8.65;76.20;100574.38;1735606;81;21262;-86
2021/04/17 11:18:20;;;;;;;11.20;9.83;;;;;;;8.67;76.21;100577.69;1722220;81;21139;-86
2021/04/17 11:20:53;;;;;;;12.87;11.47;;;;;;;8.67;76.16;100581.67;1725634;81;21275;-87
2021/04/17 11:23:52;;;;;;;13.40;10.47;;;;;;;8.71;76.01;100582.48;1729921;81;21113;-86
2021/04/17 11:26:25;;;;;;;13.48;10.90;;;;;;;8.77;75.61;100580.46;1724983;81;21196;-85
2021/04/17 11:28:56;;;;;;;13.43;11.83;;;;;;;8.77;75.50;100583.63;1731979;81;21324;-87
2021/04/17 11:31:27;;;;;;;12.17;10.80;;;;;;;8.56;75.47;100564.25;1728320;81;21205;-87
2021/04/17 11:34:00;;;;;;;11.97;10.87;;;;;;;8.67;75.58;100583.00;1748904;80;21242;-85
2021/04/17 11:36:31;;;;;;;14.53;11.23;;;;;;;8.64;75.42;100588.64;1751642;79;21219;-86
2021/04/17 11:39:00;;;;;;;10.67;8.93;;;;;;;8.64;75.10;100582.83;1776459;79;21188;-85
2021/04/17 11:41:27;;;;;;;8.77;7.93;;;;;;;8.70;74.99;100584.83;1747766;80;21269;-84
2021/04/17 11:43:54;;;;;;;9.50;8.60;;;;;;;8.69;74.84;100587.14;1775613;79;21313;-83
2021/04/17 11:46:21;;;;;;;8.97;7.00;;;;;;;8.66;75.23;100593.29;1737943;80;21126;-83
2021/04/17 11:48:51;;;;;;;8.90;8.10;;;;;;;8.65;75.26;100589.81;1739815;81;21209;-84
2021/04/17 11:51:21;;;;;;;7.53;6.73;;;;;;;8.64;75.41;100585.48;1736676;81;21231;-84
2021/04/17 11:53:54;;;;;;;7.03;6.37;;;;;;;8.68;75.14;100588.16;1740076;81;21642;-83
2021/04/17 11:56:21;;;;;;;8.97;6.27;;;;;;;8.79;74.72;100587.45;1717644;80;21063;-83